sensor_id;sensor_type;location;lat;lon;timestamp;pressure;altitude;pressure_sealevel;temperature;humidity
70468;BME280;57934;51.532;7.684;2024-03-25T00:01:36;99379.38;;;5.07;nan
70468;BME280;57934;51.532;7.684;2024-03-25T00:04:02;99379.72;;;5.03;nan
70468;BME280;57934;51.532;7.684;2024-03-25T00:06:28;99385.41;;;5.07;nan
70468;BME280;57934;51.532;7.684;2024-03-25T00:08:54;99382.34;;;4.89;nan
70468;BME280;57934;51.532;7.684;2024-03-25T00:11:20;99382.97;;;4.91;nan
70468;BME280;57934;51.532;7.684;2024-03-25T00:13:46;99390.44;;;4.94;nan
70468;BME280;57934;51.532;7.684;2024-03-25T00:16:12;99383.69;;;4.85;nan
70468;BME280;57934;51.532;7.684;2024-03-25T00:18:38;99396.31;;;4.96;nan
70468;BME280;57934;51.532;7.684;2024-03-25T00:21:04;99393.06;;;4.94;nan
70468;BME280;57934;51.532;7.684;2024-03-25T00:23:30;99391.53;;;4.85;nan
70468;BME280;57934;51.532;7.684;2024-03-25T00:25:56;99387.56;;;4.89;nan
70468;BME280;57934;51.532;7.684;2024-03-25T00:28:22;99391.53;;;4.85;nan
70468;BME280;57934;51.532;7.684;2024-03-25T00:30:48;99388.91;;;4.99;nan
70468;BME280;57934;51.532;7.684;2024-03-25T00:33:15;99391.06;;;4.81;nan
70468;BME280;57934;51.532;7.684;2024-03-25T00:35:43;99392.69;;;4.82;nan
70468;BME280;57934;51.532;7.684;2024-03-25T00:38:12;99392.78;;;4.89;nan
70468;BME280;57934;51.532;7.684;2024-03-25T00:40:38;99395.22;;;4.90;nan
70468;BME280;57934;51.532;7.684;2024-03-25T00:43:04;99403.34;;;4.95;nan
70468;BME280;57934;51.532;7.684;2024-03-25T00:45:30;99395.22;;;4.90;nan
70468;BME280;57934;51.532;7.684;2024-03-25T00:47:58;99398.91;;;4.81;nan
70468;BME280;57934;51.532;7.684;2024-03-25T00:50:28;99400.69;;;4.81;nan
70468;BME280;57934;51.532;7.684;2024-03-25T00:52:54;99406.31;;;4.92;nan
70468;BME280;57934;51.532;7.684;2024-03-25T00:55:20;99400.28;;;4.92;nan
70468;BME280;57934;51.532;7.684;2024-03-25T00:57:46;99405.28;;;4.78;nan
70468;BME280;57934;51.532;7.684;2024-03-25T01:00:14;99397.56;;;4.85;nan
70468;BME280;57934;51.532;7.684;2024-03-25T01:02:41;99395.09;;;4.84;nan
70468;BME280;57934;51.532;7.684;2024-03-25T01:05:08;99402.22;;;4.75;nan
70468;BME280;57934;51.532;7.684;2024-03-25T01:07:34;99394.03;;;4.78;nan
70468;BME280;57934;51.532;7.684;2024-03-25T01:10:01;99391.44;;;4.78;nan
70468;BME280;57934;51.532;7.684;2024-03-25T01:12:27;99396.75;;;4.85;nan
70468;BME280;57934;51.532;7.684;2024-03-25T01:14:53;99390.25;;;4.81;nan
70468;BME280;57934;51.532;7.684;2024-03-25T01:17:19;99388.88;;;4.70;nan
70468;BME280;57934;51.532;7.684;2024-03-25T01:19:45;99399.53;;;4.83;nan
70468;BME280;57934;51.532;7.684;2024-03-25T01:22:11;99393.28;;;4.69;nan
70468;BME280;57934;51.532;7.684;2024-03-25T01:24:37;99394.19;;;4.76;nan
70468;BME280;57934;51.532;7.684;2024-03-25T01:27:03;99395.28;;;4.67;nan
70468;BME280;57934;51.532;7.684;2024-03-25T01:29:29;99398.41;;;4.63;nan
70468;BME280;57934;51.532;7.684;2024-03-25T01:31:55;99393.63;;;4.66;nan
70468;BME280;57934;51.532;7.684;2024-03-25T01:34:23;99393.28;;;4.69;nan
70468;BME280;57934;51.532;7.684;2024-03-25T01:36:49;99405.44;;;4.77;nan
70468;BME280;57934;51.532;7.684;2024-03-25T01:39:15;99394.19;;;4.76;nan
70468;BME280;57934;51.532;7.684;2024-03-25T01:41:41;99401.56;;;4.73;nan
70468;BME280;57934;51.532;7.684;2024-03-25T01:44:07;99399.97;;;4.72;nan
70468;BME280;57934;51.532;7.684;2024-03-25T01:46:33;99388.00;;;4.77;nan
70468;BME280;57934;51.532;7.684;2024-03-25T01:48:59;99391.47;;;4.70;nan
70468;BME280;57934;51.532;7.684;2024-03-25T01:51:25;99401.75;;;4.71;nan
70468;BME280;57934;51.532;7.684;2024-03-25T01:53:52;99396.91;;;4.68;nan
70468;BME280;57934;51.532;7.684;2024-03-25T01:56:19;99394.19;;;4.76;nan
70468;BME280;57934;51.532;7.684;2024-03-25T01:58:46;99397.53;;;4.70;nan
70468;BME280;57934;51.532;7.684;2024-03-25T02:01:12;99398.69;;;4.68;nan
70468;BME280;57934;51.532;7.684;2024-03-25T02:03:42;99405.19;;;4.72;nan
70468;BME280;57934;51.532;7.684;2024-03-25T02:06:13;99398.34;;;4.71;nan
70468;BME280;57934;51.532;7.684;2024-03-25T02:08:41;99407.78;;;4.72;nan
70468;BME280;57934;51.532;7.684;2024-03-25T02:11:08;99410.41;;;4.72;nan
70468;BME280;57934;51.532;7.684;2024-03-25T02:13:35;99408.16;;;4.69;nan
70468;BME280;57934;51.532;7.684;2024-03-25T02:16:02;99414.25;;;4.61;nan
70468;BME280;57934;51.532;7.684;2024-03-25T02:18:28;99415.91;;;4.77;nan
70468;BME280;57934;51.532;7.684;2024-03-25T02:20:57;99412.91;;;4.65;nan
70468;BME280;57934;51.532;7.684;2024-03-25T02:23:23;99404.88;;;4.67;nan
70468;BME280;57934;51.532;7.684;2024-03-25T02:25:50;99408.16;;;4.69;nan
70468;BME280;57934;51.532;7.684;2024-03-25T02:28:17;99411.53;;;4.54;nan
70468;BME280;57934;51.532;7.684;2024-03-25T02:30:43;99408.72;;;4.56;nan
70468;BME280;57934;51.532;7.684;2024-03-25T02:33:09;99412.44;;;4.62;nan
70468;BME280;57934;51.532;7.684;2024-03-25T02:35:36;99411.53;;;4.54;nan
70468;BME280;57934;51.532;7.684;2024-03-25T02:38:02;99414.59;;;4.58;nan
70468;BME280;57934;51.532;7.684;2024-03-25T02:40:31;99412.22;;;4.48;nan
70468;BME280;57934;51.532;7.684;2024-03-25T02:42:58;99415.06;;;4.62;nan
70468;BME280;57934;51.532;7.684;2024-03-25T02:45:24;99406.66;;;4.51;nan
70468;BME280;57934;51.532;7.684;2024-03-25T02:47:50;99418.81;;;4.59;nan
70468;BME280;57934;51.532;7.684;2024-03-25T02:50:17;99415.66;;;4.49;nan
70468;BME280;57934;51.532;7.684;2024-03-25T02:52:43;99415.66;;;4.49;nan
70468;BME280;57934;51.532;7.684;2024-03-25T02:55:09;99423.59;;;4.55;nan
70468;BME280;57934;51.532;7.684;2024-03-25T02:57:35;99419.47;;;4.61;nan
70468;BME280;57934;51.532;7.684;2024-03-25T03:00:01;99417.03;;;4.60;nan
70468;BME280;57934;51.532;7.684;2024-03-25T03:02:27;99421.63;;;4.58;nan
70468;BME280;57934;51.532;7.684;2024-03-25T03:04:53;99420.16;;;4.55;nan
70468;BME280;57934;51.532;7.684;2024-03-25T03:07:19;99421.50;;;4.51;nan
70468;BME280;57934;51.532;7.684;2024-03-25T03:09:45;99420.00;;;4.57;nan
70468;BME280;57934;51.532;7.684;2024-03-25T03:12:11;99423.94;;;4.52;nan
70468;BME280;57934;51.532;7.684;2024-03-25T03:14:38;99420.06;;;4.48;nan
70468;BME280;57934;51.532;7.684;2024-03-25T03:17:04;99425.63;;;4.45;nan
70468;BME280;57934;51.532;7.684;2024-03-25T03:19:31;99426.81;;;4.43;nan
70468;BME280;57934;51.532;7.684;2024-03-25T03:21:57;99430.38;;;4.42;nan
70468;BME280;57934;51.532;7.684;2024-03-25T03:24:23;99433.63;;;4.44;nan
70468;BME280;57934;51.532;7.684;2024-03-25T03:26:49;99427.19;;;4.54;nan
70468;BME280;57934;51.532;7.684;2024-03-25T03:29:16;99430.34;;;4.50;nan
70468;BME280;57934;51.532;7.684;2024-03-25T03:31:43;99425.28;;;4.48;nan
70468;BME280;57934;51.532;7.684;2024-03-25T03:34:09;99426.38;;;4.54;nan
70468;BME280;57934;51.532;7.684;2024-03-25T03:36:35;99423.25;;;4.59;nan
70468;BME280;57934;51.532;7.684;2024-03-25T03:39:01;99417.22;;;4.58;nan
70468;BME280;57934;51.532;7.684;2024-03-25T03:41:29;99424.63;;;4.69;nan
70468;BME280;57934;51.532;7.684;2024-03-25T03:43:55;99432.91;;;4.73;nan
70468;BME280;57934;51.532;7.684;2024-03-25T03:46:21;99427.34;;;4.76;nan
70468;BME280;57934;51.532;7.684;2024-03-25T03:48:47;99431.53;;;4.62;nan
70468;BME280;57934;51.532;7.684;2024-03-25T03:51:13;99428.66;;;4.57;nan
70468;BME280;57934;51.532;7.684;2024-03-25T03:53:39;99427.66;;;4.58;nan
70468;BME280;57934;51.532;7.684;2024-03-25T03:56:05;99421.31;;;4.75;nan
70468;BME280;57934;51.532;7.684;2024-03-25T03:58:32;99428.78;;;4.78;nan
70468;BME280;57934;51.532;7.684;2024-03-25T04:00:59;99424.84;;;4.60;nan
70468;BME280;57934;51.532;7.684;2024-03-25T04:03:25;99427.41;;;4.68;nan
70468;BME280;57934;51.532;7.684;2024-03-25T04:05:51;99426.53;;;4.75;nan
70468;BME280;57934;51.532;7.684;2024-03-25T04:08:18;99431.09;;;4.73;nan
70468;BME280;57934;51.532;7.684;2024-03-25T04:10:44;99433.72;;;4.73;nan
70468;BME280;57934;51.532;7.684;2024-03-25T04:13:11;99426.78;;;4.66;nan
70468;BME280;57934;51.532;7.684;2024-03-25T04:15:40;99429.63;;;4.56;nan
70468;BME280;57934;51.532;7.684;2024-03-25T04:18:06;99429.69;;;4.71;nan
70468;BME280;57934;51.532;7.684;2024-03-25T04:20:39;99431.38;;;4.64;nan
70468;BME280;57934;51.532;7.684;2024-03-25T04:23:06;99430.03;;;4.68;nan
70468;BME280;57934;51.532;7.684;2024-03-25T04:25:35;99431.25;;;4.57;nan
70468;BME280;57934;51.532;7.684;2024-03-25T04:28:05;99437.63;;;4.54;nan
70468;BME280;57934;51.532;7.684;2024-03-25T04:30:33;99434.34;;;4.61;nan
70468;BME280;57934;51.532;7.684;2024-03-25T04:33:00;99437.75;;;4.61;nan
70468;BME280;57934;51.532;7.684;2024-03-25T04:35:26;99441.41;;;4.52;nan
70468;BME280;57934;51.532;7.684;2024-03-25T04:37:53;99443.09;;;4.68;nan
70468;BME280;57934;51.532;7.684;2024-03-25T04:40:21;99450.16;;;4.59;nan
70468;BME280;57934;51.532;7.684;2024-03-25T04:42:47;99443.44;;;4.65;nan
70468;BME280;57934;51.532;7.684;2024-03-25T04:45:13;99445.81;;;4.51;nan
70468;BME280;57934;51.532;7.684;2024-03-25T04:47:39;99451.44;;;4.40;nan
70468;BME280;57934;51.532;7.684;2024-03-25T04:50:06;99449.13;;;4.45;nan
70468;BME280;57934;51.532;7.684;2024-03-25T04:52:32;99453.38;;;4.46;nan
70468;BME280;57934;51.532;7.684;2024-03-25T04:54:58;99449.50;;;4.42;nan
70468;BME280;57934;51.532;7.684;2024-03-25T04:57:24;99447.16;;;4.47;nan
70468;BME280;57934;51.532;7.684;2024-03-25T04:59:50;99454.53;;;4.44;nan
70468;BME280;57934;51.532;7.684;2024-03-25T05:02:16;99458.63;;;4.38;nan
70468;BME280;57934;51.532;7.684;2024-03-25T05:04:42;99460.78;;;4.35;nan
70468;BME280;57934;51.532;7.684;2024-03-25T05:07:08;99461.16;;;4.23;nan
70468;BME280;57934;51.532;7.684;2024-03-25T05:09:36;99462.69;;;4.18;nan
70468;BME280;57934;51.532;7.684;2024-03-25T05:12:02;99468.84;;;4.25;nan
70468;BME280;57934;51.532;7.684;2024-03-25T05:14:28;99469.41;;;4.12;nan
70468;BME280;57934;51.532;7.684;2024-03-25T05:16:54;99468.25;;;4.15;nan
70468;BME280;57934;51.532;7.684;2024-03-25T05:19:22;99469.75;;;4.09;nan
70468;BME280;57934;51.532;7.684;2024-03-25T05:21:48;99469.44;;;4.04;nan
70468;BME280;57934;51.532;7.684;2024-03-25T05:24:14;99473.22;;;4.01;nan
70468;BME280;57934;51.532;7.684;2024-03-25T05:26:40;99472.41;;;3.93;nan
70468;BME280;57934;51.532;7.684;2024-03-25T05:29:06;99472.13;;;3.88;nan
70468;BME280;57934;51.532;7.684;2024-03-25T05:31:36;99477.28;;;3.96;nan
70468;BME280;57934;51.532;7.684;2024-03-25T05:34:02;99482.38;;;3.89;nan
70468;BME280;57934;51.532;7.684;2024-03-25T05:36:34;99479.78;;;3.89;nan
70468;BME280;57934;51.532;7.684;2024-03-25T05:39:00;99481.56;;;3.89;nan
70468;BME280;57934;51.532;7.684;2024-03-25T05:41:26;99492.59;;;3.99;nan
70468;BME280;57934;51.532;7.684;2024-03-25T05:43:52;99489.84;;;4.00;nan
70468;BME280;57934;51.532;7.684;2024-03-25T05:46:18;99486.44;;;3.92;nan
70468;BME280;57934;51.532;7.684;2024-03-25T05:48:44;99487.13;;;3.86;nan
70468;BME280;57934;51.532;7.684;2024-03-25T05:51:11;99481.28;;;3.75;nan
70468;BME280;57934;51.532;7.684;2024-03-25T05:53:37;99481.72;;;3.95;nan
70468;BME280;57934;51.532;7.684;2024-03-25T05:56:04;99494.13;;;3.93;nan
70468;BME280;57934;51.532;7.684;2024-03-25T05:58:30;99488.19;;;4.07;nan
70468;BME280;57934;51.532;7.684;2024-03-25T06:00:56;99486.03;;;4.11;nan
70468;BME280;57934;51.532;7.684;2024-03-25T06:03:22;99485.34;;;4.17;nan
70468;BME280;57934;51.532;7.684;2024-03-25T06:05:48;99483.66;;;4.24;nan
70468;BME280;57934;51.532;7.684;2024-03-25T06:08:15;99484.91;;;4.37;nan
70468;BME280;57934;51.532;7.684;2024-03-25T06:10:53;99492.53;;;4.46;nan
70468;BME280;57934;51.532;7.684;2024-03-25T06:13:20;99488.22;;;4.53;nan
70468;BME280;57934;51.532;7.684;2024-03-25T06:15:46;99490.66;;;4.55;nan
70468;BME280;57934;51.532;7.684;2024-03-25T06:18:13;99493.09;;;4.57;nan
70468;BME280;57934;51.532;7.684;2024-03-25T06:20:39;99494.03;;;4.64;nan
70468;BME280;57934;51.532;7.684;2024-03-25T06:23:05;99494.16;;;4.70;nan
70468;BME280;57934;51.532;7.684;2024-03-25T06:25:31;99494.78;;;4.72;nan
70468;BME280;57934;51.532;7.684;2024-03-25T06:27:57;99490.78;;;4.85;nan
70468;BME280;57934;51.532;7.684;2024-03-25T06:30:23;99486.50;;;4.84;nan
70468;BME280;57934;51.532;7.684;2024-03-25T06:33:08;99487.53;;;4.97;nan
70468;BME280;57934;51.532;7.684;2024-03-25T06:35:52;99495.13;;;4.92;nan
70468;BME280;57934;51.532;7.684;2024-03-25T06:38:18;99493.06;;;5.02;nan
70468;BME280;57934;51.532;7.684;2024-03-25T06:40:47;99493.47;;;5.29;nan
70468;BME280;57934;51.532;7.684;2024-03-25T06:43:13;99496.72;;;5.46;nan
70468;BME280;57934;51.532;7.684;2024-03-25T06:45:41;99502.41;;;5.64;nan
70468;BME280;57934;51.532;7.684;2024-03-25T06:48:08;99507.38;;;5.74;nan
70468;BME280;57934;51.532;7.684;2024-03-25T06:50:34;99508.00;;;5.76;nan
70468;BME280;57934;51.532;7.684;2024-03-25T06:53:00;99490.31;;;5.78;nan
70468;BME280;57934;51.532;7.684;2024-03-25T06:55:26;99493.56;;;5.80;nan
70468;BME280;57934;51.532;7.684;2024-03-25T06:57:54;99502.75;;;5.91;nan
70468;BME280;57934;51.532;7.684;2024-03-25T07:00:20;99505.22;;;5.92;nan
70468;BME280;57934;51.532;7.684;2024-03-25T07:02:50;99497.19;;;5.94;nan
70468;BME280;57934;51.532;7.684;2024-03-25T07:05:16;99500.72;;;6.01;nan
70468;BME280;57934;51.532;7.684;2024-03-25T07:07:42;99495.63;;;6.00;nan
70468;BME280;57934;51.532;7.684;2024-03-25T07:10:09;99511.69;;;5.82;nan
70468;BME280;57934;51.532;7.684;2024-03-25T07:12:34;99503.94;;;5.88;nan
70468;BME280;57934;51.532;7.684;2024-03-25T07:15:00;99510.53;;;5.84;nan
70468;BME280;57934;51.532;7.684;2024-03-25T07:17:26;99503.94;;;5.88;nan
70468;BME280;57934;51.532;7.684;2024-03-25T07:19:52;99509.28;;;5.95;nan
70468;BME280;57934;51.532;7.684;2024-03-25T07:22:19;99508.00;;;5.91;nan
70468;BME280;57934;51.532;7.684;2024-03-25T07:24:45;99507.00;;;6.07;nan
70468;BME280;57934;51.532;7.684;2024-03-25T07:27:11;99512.03;;;6.23;nan
70468;BME280;57934;51.532;7.684;2024-03-25T07:29:37;99505.78;;;6.24;nan
70468;BME280;57934;51.532;7.684;2024-03-25T07:32:03;99511.47;;;6.64;nan
70468;BME280;57934;51.532;7.684;2024-03-25T07:34:30;99511.56;;;6.99;nan
70468;BME280;57934;51.532;7.684;2024-03-25T07:36:56;99511.38;;;7.28;nan
70468;BME280;57934;51.532;7.684;2024-03-25T07:39:22;99514.78;;;7.57;nan
70468;BME280;57934;51.532;7.684;2024-03-25T07:41:53;99511.50;;;7.76;nan
70468;BME280;57934;51.532;7.684;2024-03-25T07:44:19;99509.34;;;8.00;nan
70468;BME280;57934;51.532;7.684;2024-03-25T07:46:46;99513.84;;;8.06;nan
70468;BME280;57934;51.532;7.684;2024-03-25T07:49:12;99515.81;;;7.91;nan
70468;BME280;57934;51.532;7.684;2024-03-25T07:51:38;99519.69;;;8.01;nan
70468;BME280;57934;51.532;7.684;2024-03-25T07:54:05;99516.91;;;8.16;nan
70468;BME280;57934;51.532;7.684;2024-03-25T07:56:31;99512.84;;;8.13;nan
70468;BME280;57934;51.532;7.684;2024-03-25T07:59:03;99515.13;;;8.30;nan
70468;BME280;57934;51.532;7.684;2024-03-25T08:01:29;99511.97;;;8.48;nan
70468;BME280;57934;51.532;7.684;2024-03-25T08:03:56;99513.44;;;8.70;nan
70468;BME280;57934;51.532;7.684;2024-03-25T08:06:22;99516.47;;;8.67;nan
70468;BME280;57934;51.532;7.684;2024-03-25T08:08:48;99518.31;;;8.87;nan
70468;BME280;57934;51.532;7.684;2024-03-25T08:11:14;99523.78;;;8.98;nan
70468;BME280;57934;51.532;7.684;2024-03-25T08:13:40;99516.06;;;8.77;nan
70468;BME280;57934;51.532;7.684;2024-03-25T08:16:06;99523.78;;;9.12;nan
70468;BME280;57934;51.532;7.684;2024-03-25T08:18:32;99517.50;;;9.46;nan
70468;BME280;57934;51.532;7.684;2024-03-25T08:20:58;99514.84;;;9.46;nan
70468;BME280;57934;51.532;7.684;2024-03-25T08:23:25;99513.47;;;9.23;nan
70468;BME280;57934;51.532;7.684;2024-03-25T08:25:51;99517.09;;;9.42;nan
70468;BME280;57934;51.532;7.684;2024-03-25T08:28:17;99512.22;;;9.39;nan
70468;BME280;57934;51.532;7.684;2024-03-25T08:30:43;99516.44;;;9.60;nan
70468;BME280;57934;51.532;7.684;2024-03-25T08:33:08;99513.13;;;10.49;nan
70468;BME280;57934;51.532;7.684;2024-03-25T08:35:34;99512.03;;;11.39;nan
70468;BME280;57934;51.532;7.684;2024-03-25T08:38:01;99518.69;;;12.63;nan
70468;BME280;57934;51.532;7.684;2024-03-25T08:40:27;99519.28;;;13.54;nan
70468;BME280;57934;51.532;7.684;2024-03-25T08:42:53;99513.06;;;13.60;nan
70468;BME280;57934;51.532;7.684;2024-03-25T08:45:19;99516.69;;;14.35;nan
70468;BME280;57934;51.532;7.684;2024-03-25T08:50:10;99517.59;;;15.70;nan
70468;BME280;57934;51.532;7.684;2024-03-25T08:52:36;99508.75;;;16.09;nan
70468;BME280;57934;51.532;7.684;2024-03-25T08:55:02;99505.38;;;16.40;nan
70468;BME280;57934;51.532;7.684;2024-03-25T08:57:29;99511.75;;;16.66;nan
70468;BME280;57934;51.532;7.684;2024-03-25T08:59:55;99506.72;;;16.70;nan
70468;BME280;57934;51.532;7.684;2024-03-25T09:02:21;99504.50;;;16.08;nan
70468;BME280;57934;51.532;7.684;2024-03-25T09:04:47;99510.88;;;14.78;nan
70468;BME280;57934;51.532;7.684;2024-03-25T09:07:14;99504.41;;;14.29;nan
70468;BME280;57934;51.532;7.684;2024-03-25T09:09:40;99510.09;;;14.09;nan
70468;BME280;57934;51.532;7.684;2024-03-25T09:12:25;99512.97;;;13.32;nan
70468;BME280;57934;51.532;7.684;2024-03-25T09:14:50;99507.81;;;12.72;nan
70468;BME280;57934;51.532;7.684;2024-03-25T09:17:17;99502.94;;;12.27;nan
70468;BME280;57934;51.532;7.684;2024-03-25T09:19:43;99506.13;;;11.62;nan
70468;BME280;57934;51.532;7.684;2024-03-25T09:22:09;99508.16;;;11.41;nan
70468;BME280;57934;51.532;7.684;2024-03-25T09:24:34;99511.69;;;11.29;nan
70468;BME280;57934;51.532;7.684;2024-03-25T09:27:00;99513.78;;;10.95;nan
70468;BME280;57934;51.532;7.684;2024-03-25T09:29:26;99514.50;;;10.52;nan
70468;BME280;57934;51.532;7.684;2024-03-25T09:31:52;99510.56;;;11.43;nan
70468;BME280;57934;51.532;7.684;2024-03-25T09:34:18;99499.31;;;12.39;nan
70468;BME280;57934;51.532;7.684;2024-03-25T09:36:44;99507.13;;;12.16;nan
70468;BME280;57934;51.532;7.684;2024-03-25T09:39:10;99500.31;;;11.53;nan
70468;BME280;57934;51.532;7.684;2024-03-25T09:41:37;99498.00;;;11.20;nan
70468;BME280;57934;51.532;7.684;2024-03-25T09:44:05;99500.69;;;11.13;nan
70468;BME280;57934;51.532;7.684;2024-03-25T09:46:31;99493.88;;;11.86;nan
70468;BME280;57934;51.532;7.684;2024-03-25T09:48:59;99496.59;;;12.46;nan
70468;BME280;57934;51.532;7.684;2024-03-25T09:51:25;99495.00;;;13.57;nan
70468;BME280;57934;51.532;7.684;2024-03-25T09:53:51;99498.75;;;13.85;nan
70468;BME280;57934;51.532;7.684;2024-03-25T09:56:17;99490.53;;;15.18;nan
70468;BME280;57934;51.532;7.684;2024-03-25T09:58:44;99479.31;;;16.42;nan
70468;BME280;57934;51.532;7.684;2024-03-25T10:01:10;99483.72;;;16.86;nan
70468;BME280;57934;51.532;7.684;2024-03-25T10:03:36;99479.44;;;17.17;nan
70468;BME280;57934;51.532;7.684;2024-03-25T10:06:02;99478.38;;;17.18;nan
70468;BME280;57934;51.532;7.684;2024-03-25T10:08:29;99479.72;;;18.36;nan
70468;BME280;57934;51.532;7.684;2024-03-25T10:10:55;99472.41;;;18.01;nan
70468;BME280;57934;51.532;7.684;2024-03-25T10:13:22;99476.50;;;17.66;nan
70468;BME280;57934;51.532;7.684;2024-03-25T10:15:49;99479.72;;;18.36;nan
70468;BME280;57934;51.532;7.684;2024-03-25T10:18:17;99483.72;;;18.44;nan
70468;BME280;57934;51.532;7.684;2024-03-25T10:20:52;99473.38;;;17.79;nan
70468;BME280;57934;51.532;7.684;2024-03-25T10:23:20;99473.00;;;17.55;nan
70468;BME280;57934;51.532;7.684;2024-03-25T10:25:48;99475.75;;;17.76;nan
70468;BME280;57934;51.532;7.684;2024-03-25T10:28:14;99474.94;;;19.10;nan
70468;BME280;57934;51.532;7.684;2024-03-25T10:30:41;99470.94;;;19.17;nan
70468;BME280;57934;51.532;7.684;2024-03-25T10:33:07;99468.28;;;18.76;nan
70468;BME280;57934;51.532;7.684;2024-03-25T10:35:35;99460.94;;;16.68;nan
70468;BME280;57934;51.532;7.684;2024-03-25T10:38:06;99455.88;;;17.41;nan
70468;BME280;57934;51.532;7.684;2024-03-25T10:40:34;99457.47;;;17.47;nan
70468;BME280;57934;51.532;7.684;2024-03-25T10:43:01;99454.13;;;18.96;nan
70468;BME280;57934;51.532;7.684;2024-03-25T10:45:32;99451.31;;;20.17;nan
70468;BME280;57934;51.532;7.684;2024-03-25T10:48:03;99449.50;;;20.52;nan
70468;BME280;57934;51.532;7.684;2024-03-25T10:50:34;99451.81;;;20.64;nan
70468;BME280;57934;51.532;7.684;2024-03-25T10:53:02;99457.59;;;19.97;nan
70468;BME280;57934;51.532;7.684;2024-03-25T10:55:32;99452.19;;;19.27;nan
70468;BME280;57934;51.532;7.684;2024-03-25T10:58:01;99449.13;;;19.75;nan
70468;BME280;57934;51.532;7.684;2024-03-25T11:00:28;99443.31;;;20.07;nan
70468;BME280;57934;51.532;7.684;2024-03-25T11:02:55;99444.97;;;20.03;nan
70468;BME280;57934;51.532;7.684;2024-03-25T11:05:22;99442.59;;;18.29;nan
70468;BME280;57934;51.532;7.684;2024-03-25T11:07:49;99438.28;;;16.70;nan
70468;BME280;57934;51.532;7.684;2024-03-25T11:10:15;99435.28;;;14.64;nan
70468;BME280;57934;51.532;7.684;2024-03-25T11:12:41;99436.03;;;13.50;nan
70468;BME280;57934;51.532;7.684;2024-03-25T11:15:08;99422.59;;;13.05;nan
70468;BME280;57934;51.532;7.684;2024-03-25T11:17:35;99428.00;;;12.86;nan
70468;BME280;57934;51.532;7.684;2024-03-25T11:20:09;99425.19;;;13.64;nan
70468;BME280;57934;51.532;7.684;2024-03-25T11:22:36;99410.50;;;14.92;nan
70468;BME280;57934;51.532;7.684;2024-03-25T11:25:06;99411.84;;;15.34;nan
70468;BME280;57934;51.532;7.684;2024-03-25T11:27:36;99414.03;;;15.59;nan
70468;BME280;57934;51.532;7.684;2024-03-25T11:30:03;99410.44;;;15.92;nan
70468;BME280;57934;51.532;7.684;2024-03-25T11:32:47;99405.31;;;15.85;nan
70468;BME280;57934;51.532;7.684;2024-03-25T11:35:17;99403.06;;;16.26;nan
70468;BME280;57934;51.532;7.684;2024-03-25T11:37:43;99404.34;;;16.83;nan
70468;BME280;57934;51.532;7.684;2024-03-25T11:40:11;99401.66;;;17.20;nan
70468;BME280;57934;51.532;7.684;2024-03-25T11:42:45;99403.06;;;18.16;nan
70468;BME280;57934;51.532;7.684;2024-03-25T11:45:21;99400.16;;;18.79;nan
70468;BME280;57934;51.532;7.684;2024-03-25T11:47:49;99401.50;;;18.76;nan
70468;BME280;57934;51.532;7.684;2024-03-25T11:50:17;99397.19;;;18.24;nan
70468;BME280;57934;51.532;7.684;2024-03-25T11:52:44;99393.94;;;17.97;nan
70468;BME280;57934;51.532;7.684;2024-03-25T11:55:11;99393.47;;;18.46;nan
70468;BME280;57934;51.532;7.684;2024-03-25T11:57:40;99385.22;;;19.68;nan
70468;BME280;57934;51.532;7.684;2024-03-25T12:00:07;99378.09;;;20.66;nan
70468;BME280;57934;51.532;7.684;2024-03-25T12:02:43;99380.63;;;21.11;nan
70468;BME280;57934;51.532;7.684;2024-03-25T12:05:11;99376.88;;;21.36;nan
70468;BME280;57934;51.532;7.684;2024-03-25T12:07:37;99379.03;;;21.77;nan
70468;BME280;57934;51.532;7.684;2024-03-25T12:10:04;99374.38;;;20.67;nan
70468;BME280;57934;51.532;7.684;2024-03-25T12:12:48;99358.31;;;21.15;nan
70468;BME280;57934;51.532;7.684;2024-03-25T12:15:20;99357.22;;;19.45;nan
70468;BME280;57934;51.532;7.684;2024-03-25T12:17:47;99357.41;;;18.64;nan
70468;BME280;57934;51.532;7.684;2024-03-25T12:20:13;99363.63;;;17.40;nan
70468;BME280;57934;51.532;7.684;2024-03-25T12:22:42;99354.59;;;16.19;nan
70468;BME280;57934;51.532;7.684;2024-03-25T12:25:09;99352.44;;;14.79;nan
70468;BME280;57934;51.532;7.684;2024-03-25T12:27:37;99349.94;;;13.76;nan
70468;BME280;57934;51.532;7.684;2024-03-25T12:30:08;99342.06;;;13.53;nan
70468;BME280;57934;51.532;7.684;2024-03-25T12:32:44;99329.94;;;13.05;nan
70468;BME280;57934;51.532;7.684;2024-03-25T12:35:12;99333.69;;;12.57;nan
70468;BME280;57934;51.532;7.684;2024-03-25T12:37:39;99330.34;;;12.50;nan
70468;BME280;57934;51.532;7.684;2024-03-25T12:40:07;99332.81;;;12.21;nan
70468;BME280;57934;51.532;7.684;2024-03-25T12:42:34;99322.84;;;12.35;nan
70468;BME280;57934;51.532;7.684;2024-03-25T12:45:00;99313.75;;;12.19;nan
70468;BME280;57934;51.532;7.684;2024-03-25T12:47:27;99319.00;;;12.07;nan
70468;BME280;57934;51.532;7.684;2024-03-25T12:49:53;99315.81;;;12.17;nan
70468;BME280;57934;51.532;7.684;2024-03-25T12:52:19;99308.13;;;12.27;nan
70468;BME280;57934;51.532;7.684;2024-03-25T12:54:45;99302.97;;;12.44;nan
70468;BME280;57934;51.532;7.684;2024-03-25T12:57:11;99300.44;;;12.61;nan
70468;BME280;57934;51.532;7.684;2024-03-25T12:59:37;99306.31;;;12.75;nan
70468;BME280;57934;51.532;7.684;2024-03-25T13:02:04;99296.88;;;12.79;nan
70468;BME280;57934;51.532;7.684;2024-03-25T13:04:30;99292.50;;;12.26;nan
70468;BME280;57934;51.532;7.684;2024-03-25T13:06:56;99295.72;;;12.28;nan
70468;BME280;57934;51.532;7.684;2024-03-25T13:09:22;99291.22;;;12.16;nan
70468;BME280;57934;51.532;7.684;2024-03-25T13:11:48;99291.41;;;11.91;nan
70468;BME280;57934;51.532;7.684;2024-03-25T13:14:14;99285.25;;;11.79;nan
70468;BME280;57934;51.532;7.684;2024-03-25T13:16:41;99290.22;;;11.45;nan
70468;BME280;57934;51.532;7.684;2024-03-25T13:19:07;99282.41;;;11.81;nan
70468;BME280;57934;51.532;7.684;2024-03-25T13:21:33;99276.75;;;11.65;nan
70468;BME280;57934;51.532;7.684;2024-03-25T13:23:59;99275.88;;;11.83;nan
70468;BME280;57934;51.532;7.684;2024-03-25T13:26:26;99260.03;;;11.83;nan
70468;BME280;57934;51.532;7.684;2024-03-25T13:28:53;99261.81;;;12.01;nan
70468;BME280;57934;51.532;7.684;2024-03-25T13:31:19;99262.31;;;11.80;nan